Souda — SVBH5 — position and weather

sailwx.info

Track history (hours):
 
Tides and Currents Weather Stations Pressure Air Temp Water Temp Dewpoint Dewpoint Depression Visibility Wind Speed Wind Dir Waves Ship Positions

Souda

Last reported at 2014-Sep-19 16:27 UTC. Time now 2014-Sep-20 03:51 UTC.
Position N 37°55' E 023°05'.

Length 88 m; draft 5.4 m.

Type: Tanker. MMSI: 241109000.

Date/timePositionNaut miles runAvg speedWind from/ knotsBaromVisibWave heightAir tempDewpointWater temp
2014-Sep-19 16:27N 37°55' E 023°05'6 0.4
2014-Sep-19 03:10N 37°53' E 023°12'6 8.9
2014-Sep-19 02:31N 37°52' E 023°19'9 9.0
2014-Sep-19 01:33N 37°50' E 023°30'8 8.3
2014-Sep-19 00:33N 37°48' E 023°40'9 8.8
2014-Sep-18 23:32N 37°40' E 023°45'52 8.5
2014-Sep-18 17:25N 36°49' E 023°57'30 9.1
2014-Sep-18 14:08N 36°20' E 024°04'5 9.5
2014-Sep-18 13:33N 36°14' E 024°05'20 0.5
2014-Sep-16 22:09N 36°34' E 024°02'15 8.6
2014-Sep-16 20:28N 36°49' E 023°58'52 8.4
2014-Sep-16 14:20N 37°39' E 023°42'8 8.5
2014-Sep-16 13:25N 37°46' E 023°38'6 7.4
2014-Sep-16 12:33N 37°50' E 023°32'9 8.6
2014-Sep-16 11:33N 37°51' E 023°21'14 0.5
2014-Sep-15 08:21N 37°54' E 023°04'6 6.7
2014-Sep-15 07:29N 37°53' E 023°11'8 8.7
2014-Sep-15 06:33N 37°51' E 023°21'9 8.9
2014-Sep-15 05:33N 37°50' E 023°33'8 7.1
2014-Sep-15 04:30N 37°57' E 023°35'0 0.0
2014-Sep-15 03:24N 37°57' E 023°35'0 0.0
2014-Sep-15 02:33N 37°57' E 023°35'0 0.0
2014-Sep-15 01:33N 37°57' E 023°35'0 0.0
2014-Sep-15 00:33N 37°57' E 023°35'0 0.0
2014-Sep-14 23:33N 37°57' E 023°35'0 0.0
2014-Sep-14 22:33N 37°57' E 023°35'0 0.0
2014-Sep-14 21:33N 37°57' E 023°35'0 0.0
2014-Sep-14 20:33N 37°57' E 023°35'0 0.0
2014-Sep-14 19:33N 37°57' E 023°35'0 0.0
2014-Sep-14 18:33N 37°57' E 023°35'0 0.0
2014-Sep-14 17:33N 37°57' E 023°35'0 0.0
2014-Sep-14 16:33N 37°57' E 023°35'0 0.0
2014-Sep-14 15:27N 37°57' E 023°35'0 0.0
2014-Sep-14 14:33N 37°57' E 023°35'0 0.0
2014-Sep-14 13:33N 37°57' E 023°35'0 0.0
2014-Sep-14 12:27N 37°57' E 023°35'0 0.0
2014-Sep-14 11:27N 37°57' E 023°35'0 0.0
2014-Sep-14 10:33N 37°57' E 023°35'0 0.0
2014-Sep-14 09:30N 37°57' E 023°35'0 0.0
2014-Sep-14 08:33N 37°57' E 023°35'0 0.0
2014-Sep-14 07:30N 37°57' E 023°35'0 0.0
2014-Sep-13 16:16N 37°57' E 023°35'4 6.2
2014-Sep-13 15:33N 37°53' E 023°34'7 6.6
2014-Sep-13 14:33N 37°50' E 023°26'8 8.3
2014-Sep-13 13:33N 37°52' E 023°16'9 0.4
2014-Sep-12 17:12N 37°55' E 023°05'12 7.5
2014-Sep-12 15:33N 37°52' E 023°21'9 9.5
2014-Sep-12 14:33N 37°49' E 023°32'8 8.4
2014-Sep-12 13:33N 37°46' E 023°42'21 9.3
2014-Sep-12 11:16N 37°25' E 023°49'25 9.0
2014-Sep-12 08:32N 37°01' E 023°55'9 9.1
2014-Sep-12 07:33N 36°52' E 023°57'9 9.1
2014-Sep-12 06:33N 36°44' E 023°59'9 9.3
2014-Sep-12 05:33N 36°34' E 024°01'9 9.4
2014-Sep-12 04:33N 36°25' E 024°03'9 9.3
2014-Sep-12 03:33N 36°16' E 024°05'10 9.4
2014-Sep-12 02:31N 36°06' E 024°07'9 9.4
2014-Sep-12 01:33N 35°57' E 024°09'37 1.0
2014-Sep-10 13:14N 36°34' E 024°01'14 8.5
2014-Sep-10 11:33N 36°48' E 023°58'58 8.3
2014-Sep-10 04:33N 37°44' E 023°40'8 7.7
2014-Sep-10 03:34N 37°49' E 023°33'9 8.6
2014-Sep-10 02:33N 37°51' E 023°22'  
Track history (hours):
 
Tides and Currents Weather Stations Pressure Air Temp Water Temp Dewpoint Dewpoint Depression Visibility Wind Speed Wind Dir Waves Ship Positions

Souda

Last reported at 2014-Sep-19 16:27 UTC. Time now 2014-Sep-20 03:51 UTC.
Position N 37°55' E 023°05'.

Length 88 m; draft 5.4 m.

Type: Tanker. MMSI: 241109000.

Date/timePositionNaut miles runAvg speedWind from/ knotsBaromVisibWave heightAir tempDewpointWater temp
2014-Sep-19 16:27N 37°55' E 023°05'6 0.4
2014-Sep-19 03:10N 37°53' E 023°12'6 8.9
2014-Sep-19 02:31N 37°52' E 023°19'9 9.0
2014-Sep-19 01:33N 37°50' E 023°30'8 8.3
2014-Sep-19 00:33N 37°48' E 023°40'9 8.8
2014-Sep-18 23:32N 37°40' E 023°45'52 8.5
2014-Sep-18 17:25N 36°49' E 023°57'30 9.1
2014-Sep-18 14:08N 36°20' E 024°04'5 9.5
2014-Sep-18 13:33N 36°14' E 024°05'20 0.5
2014-Sep-16 22:09N 36°34' E 024°02'15 8.6
2014-Sep-16 20:28N 36°49' E 023°58'52 8.4
2014-Sep-16 14:20N 37°39' E 023°42'8 8.5
2014-Sep-16 13:25N 37°46' E 023°38'6 7.4
2014-Sep-16 12:33N 37°50' E 023°32'9 8.6
2014-Sep-16 11:33N 37°51' E 023°21'14 0.5
2014-Sep-15 08:21N 37°54' E 023°04'6 6.7
2014-Sep-15 07:29N 37°53' E 023°11'8 8.7
2014-Sep-15 06:33N 37°51' E 023°21'9 8.9
2014-Sep-15 05:33N 37°50' E 023°33'8 7.1
2014-Sep-15 04:30N 37°57' E 023°35'0 0.0
2014-Sep-15 03:24N 37°57' E 023°35'0 0.0
2014-Sep-15 02:33N 37°57' E 023°35'0 0.0
2014-Sep-15 01:33N 37°57' E 023°35'0 0.0
2014-Sep-15 00:33N 37°57' E 023°35'0 0.0
2014-Sep-14 23:33N 37°57' E 023°35'0 0.0
2014-Sep-14 22:33N 37°57' E 023°35'0 0.0
2014-Sep-14 21:33N 37°57' E 023°35'0 0.0
2014-Sep-14 20:33N 37°57' E 023°35'0 0.0
2014-Sep-14 19:33N 37°57' E 023°35'0 0.0
2014-Sep-14 18:33N 37°57' E 023°35'0 0.0
2014-Sep-14 17:33N 37°57' E 023°35'0 0.0
2014-Sep-14 16:33N 37°57' E 023°35'0 0.0
2014-Sep-14 15:27N 37°57' E 023°35'0 0.0
2014-Sep-14 14:33N 37°57' E 023°35'0 0.0
2014-Sep-14 13:33N 37°57' E 023°35'0 0.0
2014-Sep-14 12:27N 37°57' E 023°35'0 0.0
2014-Sep-14 11:27N 37°57' E 023°35'0 0.0
2014-Sep-14 10:33N 37°57' E 023°35'0 0.0
2014-Sep-14 09:30N 37°57' E 023°35'0 0.0
2014-Sep-14 08:33N 37°57' E 023°35'0 0.0
2014-Sep-14 07:30N 37°57' E 023°35'0 0.0
2014-Sep-13 16:16N 37°57' E 023°35'4 6.2
2014-Sep-13 15:33N 37°53' E 023°34'7 6.6
2014-Sep-13 14:33N 37°50' E 023°26'8 8.3
2014-Sep-13 13:33N 37°52' E 023°16'9 0.4
2014-Sep-12 17:12N 37°55' E 023°05'12 7.5
2014-Sep-12 15:33N 37°52' E 023°21'9 9.5
2014-Sep-12 14:33N 37°49' E 023°32'8 8.4
2014-Sep-12 13:33N 37°46' E 023°42'21 9.3
2014-Sep-12 11:16N 37°25' E 023°49'25 9.0
2014-Sep-12 08:32N 37°01' E 023°55'9 9.1
2014-Sep-12 07:33N 36°52' E 023°57'9 9.1
2014-Sep-12 06:33N 36°44' E 023°59'9 9.3
2014-Sep-12 05:33N 36°34' E 024°01'9 9.4
2014-Sep-12 04:33N 36°25' E 024°03'9 9.3
2014-Sep-12 03:33N 36°16' E 024°05'10 9.4
2014-Sep-12 02:31N 36°06' E 024°07'9 9.4
2014-Sep-12 01:33N 35°57' E 024°09'37 1.0
2014-Sep-10 13:14N 36°34' E 024°01'14 8.5
2014-Sep-10 11:33N 36°48' E 023°58'58 8.3
2014-Sep-10 04:33N 37°44' E 023°40'8 7.7
2014-Sep-10 03:34N 37°49' E 023°33'9 8.6
2014-Sep-10 02:33N 37°51' E 023°22'  

Dump ship's entire track history